Terminal Aerodrome Forecast
Issued by NWS Midland/Odessa, TX

Home | Current Version | Previous Version | Text Only | Print | Product List | Glossary On
Versions: 1 2 3 4 5 6 7 8 9 10 11 12 13 14 15 16 17 18 19 20 21 22 23 24 25 26 27 28 29 30 31 32 33 34
956
FTUS44 KMAF 090901 AAB
TAFMAF
TAF AMD
KMAF 090901Z 0909/1006 13007KT P6SM SCT020 OVC035
      TEMPO 0911/0915 BKN015
     FM091700 17009KT P6SM SCT050 BKN100
     FM100000 18007KT P6SM SCT250=

USA.gov is the U.S. government's official web portal to all federal, state and local government web resources and services.